Aniara — SKJC — position and weather

sailwx.info

Track history (hours):
 
Tides and Currents Weather Stations Pressure Air Temp Water Temp Dewpoint Dewpoint Depression Visibility Wind Speed Wind Dir Waves Ship Positions

Aniara

Last reported at 2016-Feb-11 17:07 UTC. Time now 2016-Feb-11 23:20 UTC.
Position N 37°16' E 023°39'.

Length 232 m; draft 9.2 m.

Type: Cargo ship. MMSI: 266282000.

Date/timePositionNaut miles runAvg speedWind from/ knotsBaromVisibWave heightAir tempDewpointWater temp
2016-Feb-11 17:07N 37°16' E 023°39'916.5
2016-Feb-11 16:33N 37°25' E 023°41'1615.9
2016-Feb-11 15:33N 37°41' E 023°42'1515.4
2016-Feb-11 14:33N 37°56' E 023°36'2 1.6
2016-Feb-11 13:30N 37°58' E 023°36'0 0.0
2016-Feb-11 12:30N 37°58' E 023°36'0 0.0
2016-Feb-11 11:33N 37°58' E 023°36'0 0.0
2016-Feb-11 10:33N 37°58' E 023°36'0 0.0
2016-Feb-11 09:33N 37°58' E 023°36'0 0.0
2016-Feb-11 08:27N 37°58' E 023°36'3 3.4
2016-Feb-11 07:34N 37°55' E 023°37'1 1.3
2016-Feb-11 06:34N 37°53' E 023°37'1 0.6
2016-Feb-11 05:33N 37°54' E 023°37'1 1.4
2016-Feb-11 04:34N 37°53' E 023°38'7 7.0
2016-Feb-11 03:34N 37°46' E 023°41'7 7.3
2016-Feb-11 02:33N 37°40' E 023°45'1312.9
2016-Feb-11 01:34N 37°28' E 023°51'  
Track history (hours):
 
Tides and Currents Weather Stations Pressure Air Temp Water Temp Dewpoint Dewpoint Depression Visibility Wind Speed Wind Dir Waves Ship Positions

Aniara

Last reported at 2016-Feb-11 17:07 UTC. Time now 2016-Feb-11 23:20 UTC.
Position N 37°16' E 023°39'.

Length 232 m; draft 9.2 m.

Type: Cargo ship. MMSI: 266282000.

Date/timePositionNaut miles runAvg speedWind from/ knotsBaromVisibWave heightAir tempDewpointWater temp
2016-Feb-11 17:07N 37°16' E 023°39'916.5
2016-Feb-11 16:33N 37°25' E 023°41'1615.9
2016-Feb-11 15:33N 37°41' E 023°42'1515.4
2016-Feb-11 14:33N 37°56' E 023°36'2 1.6
2016-Feb-11 13:30N 37°58' E 023°36'0 0.0
2016-Feb-11 12:30N 37°58' E 023°36'0 0.0
2016-Feb-11 11:33N 37°58' E 023°36'0 0.0
2016-Feb-11 10:33N 37°58' E 023°36'0 0.0
2016-Feb-11 09:33N 37°58' E 023°36'0 0.0
2016-Feb-11 08:27N 37°58' E 023°36'3 3.4
2016-Feb-11 07:34N 37°55' E 023°37'1 1.3
2016-Feb-11 06:34N 37°53' E 023°37'1 0.6
2016-Feb-11 05:33N 37°54' E 023°37'1 1.4
2016-Feb-11 04:34N 37°53' E 023°38'7 7.0
2016-Feb-11 03:34N 37°46' E 023°41'7 7.3
2016-Feb-11 02:33N 37°40' E 023°45'1312.9
2016-Feb-11 01:34N 37°28' E 023°51'  

Dump ship's entire track history